Time;durP1;ratioP1;P1;durP2;ratioP2;P2;SDS_P1;SDS_P2;PMS_P1;PMS_P2;Temp;Humidity;BMP_temperature;BMP_pressure;BME280_temperature;BME280_humidity;BME280_pressure;Samples;Min_cycle;Max_cycle;Signal;HPM_P1;HPM_P2
2021/11/04 00:02:17;;;;;;;6.63;4.82;;;6.10;99.90;;;;;;5106958;27;20402;-80
2021/11/04 00:04:43;;;;;;;12.30;4.47;;;5.90;99.90;;;;;;5067813;28;20083;-79
2021/11/04 00:07:12;;;;;;;7.03;4.50;;;5.90;99.90;;;;;;5089371;28;20045;-80
2021/11/04 00:09:38;;;;;;;6.75;5.53;;;6.00;99.90;;;;;;5062726;28;20037;-80
2021/11/04 00:12:05;;;;;;;6.32;4.68;;;5.90;99.90;;;;;;5071899;28;20047;-80
2021/11/04 00:14:30;;;;;;;9.77;6.00;;;6.00;99.90;;;;;;5107427;28;20512;-80
2021/11/04 00:16:56;;;;;;;8.27;5.20;;;5.90;99.90;;;;;;5055993;28;20040;-81
2021/11/04 00:19:24;;;;;;;7.78;4.57;;;5.90;99.90;;;;;;5106734;28;20357;-80
2021/11/04 00:21:50;;;;;;;7.88;4.57;;;6.00;99.90;;;;;;5090045;28;20044;-80
2021/11/04 00:24:15;;;;;;;10.70;5.50;;;5.90;99.90;;;;;;5104805;27;20461;-80
2021/11/04 00:26:41;;;;;;;7.68;5.03;;;5.90;99.90;;;;;;5104981;28;20102;-78
2021/11/04 00:29:07;;;;;;;7.43;5.57;;;5.90;99.90;;;;;;5106583;28;20045;-79
2021/11/04 00:31:33;;;;;;;7.93;4.75;;;5.90;99.90;;;;;;5066015;28;20070;-79
2021/11/04 00:33:59;;;;;;;5.80;3.90;;;5.90;99.90;;;;;;5107207;27;20139;-79
2021/11/04 00:36:24;;;;;;;8.18;6.57;;;5.90;99.90;;;;;;5067992;28;20123;-79
2021/11/04 00:38:50;;;;;;;5.70;3.95;;;6.00;99.90;;;;;;5071916;28;20032;-79
2021/11/04 00:41:17;;;;;;;8.73;5.30;;;5.80;99.90;;;;;;5070957;28;20056;-79
2021/11/04 00:43:43;;;;;;;7.18;3.95;;;5.90;99.90;;;;;;5106548;27;20040;-79
2021/11/04 00:46:10;;;;;;;6.47;4.75;;;5.90;99.90;;;;;;5105777;28;20315;-79
2021/11/04 00:48:35;;;;;;;10.13;5.32;;;5.90;99.90;;;;;;5096568;27;20037;-78
2021/11/04 00:51:02;;;;;;;9.00;4.15;;;5.90;99.90;;;;;;5102767;28;20055;-79
2021/11/04 00:53:27;;;;;;;;;;;5.90;99.90;;;;;;5076627;28;20044;-78
2021/11/04 00:55:56;;;;;;;10.40;4.10;;;6.00;99.90;;;;;;5069801;28;19917;-80
2021/11/04 00:58:22;;;;;;;5.00;4.00;;;6.00;99.90;;;;;;5106967;28;20051;-79
2021/11/04 01:00:48;;;;;;;10.85;6.25;;;6.00;99.90;;;;;;5075495;28;20048;-80
2021/11/04 01:03:14;;;;;;;13.45;5.78;;;6.00;99.90;;;;;;5113193;27;20040;-80
2021/11/04 01:05:40;;;;;;;7.25;4.15;;;6.00;99.90;;;;;;5075609;28;20490;-80
2021/11/04 01:08:06;;;;;;;9.50;6.10;;;6.10;99.90;;;;;;5088896;28;20037;-80
2021/11/04 01:10:32;;;;;;;12.13;4.60;;;6.00;99.90;;;;;;5088369;28;20052;-81
2021/11/04 01:12:57;;;;;;;13.55;7.25;;;6.00;99.90;;;;;;5091414;28;20040;-81
2021/11/04 01:15:23;;;;;;;8.20;5.70;;;6.00;99.90;;;;;;5055449;28;20047;-81
2021/11/04 01:17:50;;;;;;;10.32;5.65;;;6.00;99.90;;;;;;5106515;28;20044;-81
2021/11/04 01:20:17;;;;;;;6.70;4.35;;;6.00;99.90;;;;;;5063596;28;20032;-81
2021/11/04 01:22:43;;;;;;;13.07;7.05;;;5.90;99.90;;;;;;5096610;27;20064;-81
2021/11/04 01:25:09;;;;;;;8.27;5.63;;;6.30;99.90;;;;;;5070604;28;20544;-81
2021/11/04 01:27:35;;;;;;;14.35;6.45;;;5.90;99.90;;;;;;5105843;28;20063;-80
2021/11/04 01:30:02;;;;;;;9.02;7.25;;;5.90;99.90;;;;;;5102508;28;20057;-77
2021/11/04 01:32:28;;;;;;;11.32;5.10;;;5.90;99.90;;;;;;5102438;28;20114;-78
2021/11/04 01:34:54;;;;;;;7.88;5.18;;;6.00;99.90;;;;;;5077324;28;20044;-80
2021/11/04 01:37:19;;;;;;;14.68;8.93;;;5.80;99.90;;;;;;5086301;28;20064;-80
2021/11/04 01:39:45;;;;;;;8.23;5.50;;;6.00;99.90;;;;;;5066605;28;20057;-79
2021/11/04 01:42:11;;;;;;;8.77;5.50;;;6.00;99.90;;;;;;5071913;28;20049;-81
2021/11/04 01:44:36;;;;;;;6.90;4.95;;;6.00;99.90;;;;;;5060637;28;20441;-79
2021/11/04 01:47:02;;;;;;;11.10;5.53;;;6.00;99.90;;;;;;5086596;28;20120;-80
2021/11/04 01:49:28;;;;;;;10.18;5.90;;;6.00;99.90;;;;;;5069198;28;20033;-79
2021/11/04 01:51:54;;;;;;;5.45;4.93;;;5.90;99.90;;;;;;5103770;28;20086;-79
2021/11/04 01:54:20;;;;;;;;;;;5.90;99.90;;;;;;5094220;28;20048;-79
2021/11/04 01:56:46;;;;;;;7.07;4.60;;;6.00;99.90;;;;;;5104895;28;19916;-79
2021/11/04 01:59:12;;;;;;;6.53;4.85;;;6.00;99.90;;;;;;5104780;28;20090;-79
2021/11/04 02:01:38;;;;;;;12.40;5.07;;;5.90;99.90;;;;;;5105151;28;20040;-80
2021/11/04 02:04:45;;;;;;;7.82;3.63;;;6.00;99.90;;;;;;5104156;28;20036;-79
2021/11/04 02:07:20;;;;;;;8.00;4.25;;;5.90;99.90;;;;;;5048670;28;20124;-79
2021/11/04 02:10:12;;;;;;;8.68;4.00;;;5.90;99.90;;;;;;5049546;28;20047;-79
2021/11/04 02:13:13;;;;;;;6.68;5.22;;;5.90;99.90;;;;;;5034293;28;20052;-80
2021/11/04 02:15:42;;;;;;;7.53;4.10;;;5.90;99.90;;;;;;5114081;27;20032;-81
2021/11/04 02:18:08;;;;;;;14.32;5.65;;;6.00;99.90;;;;;;5070248;28;20037;-80
2021/11/04 02:20:52;;;;;;;7.68;5.53;;;5.90;99.90;;;;;;5103538;28;20128;-80
2021/11/04 02:23:26;;;;;;;8.25;5.25;;;5.90;99.90;;;;;;5092368;28;20377;-80
2021/11/04 02:25:54;;;;;;;10.85;4.63;;;6.00;99.90;;;;;;5069727;28;20068;-80
2021/11/04 02:28:21;;;;;;;7.32;4.43;;;5.90;99.90;;;;;;5094641;28;20505;-80
2021/11/04 02:30:47;;;;;;;4.13;3.65;;;5.90;99.90;;;;;;5084126;28;20052;-79
2021/11/04 02:33:16;;;;;;;6.65;3.50;;;6.00;99.90;;;;;;5070222;28;20127;-80
2021/11/04 02:35:49;;;;;;;7.80;6.53;;;6.00;99.90;;;;;;5076091;28;20566;-81
2021/11/04 02:38:20;;;;;;;6.10;3.70;;;6.00;99.90;;;;;;5103849;28;20048;-81
2021/11/04 02:40:47;;;;;;;7.22;5.43;;;6.00;99.90;;;;;;5087117;28;20106;-81
2021/11/04 02:43:17;;;;;;;9.23;3.88;;;6.00;99.90;;;;;;5106976;28;20032;-80
2021/11/04 02:45:43;;;;;;;11.88;4.68;;;6.00;99.90;;;;;;5116321;27;20527;-80
2021/11/04 02:48:10;;;;;;;8.32;5.22;;;5.90;99.90;;;;;;5086755;28;20044;-80
2021/11/04 02:50:36;;;;;;;7.72;4.68;;;5.90;99.90;;;;;;5068113;28;20086;-80
2021/11/04 02:53:02;;;;;;;;;;;6.00;99.90;;;;;;5087755;28;20058;-79
2021/11/04 02:55:35;;;;;;;7.78;6.30;;;6.00;99.90;;;;;;5093751;28;19917;-79
2021/11/04 02:58:06;;;;;;;15.27;5.20;;;6.00;99.90;;;;;;5058964;28;20048;-79
2021/11/04 03:00:34;;;;;;;4.18;3.83;;;6.10;99.90;;;;;;5055565;28;20044;-79
2021/11/04 03:02:59;;;;;;;6.65;5.18;;;6.00;99.90;;;;;;5095507;28;20051;-78
2021/11/04 03:05:25;;;;;;;10.60;4.70;;;6.10;99.90;;;;;;5087400;28;20425;-80
2021/11/04 03:07:51;;;;;;;6.40;4.53;;;6.00;99.90;;;;;;5070068;28;20478;-79
2021/11/04 03:10:19;;;;;;;5.78;4.20;;;6.10;99.90;;;;;;5070903;28;20044;-79
2021/11/04 03:12:44;;;;;;;11.50;5.63;;;6.10;99.90;;;;;;5070051;28;20186;-79
2021/11/04 03:15:15;;;;;;;7.20;3.40;;;6.10;99.90;;;;;;5104000;27;20104;-79
2021/11/04 03:17:41;;;;;;;5.30;3.97;;;6.10;99.90;;;;;;5068378;28;20095;-80
2021/11/04 03:20:09;;;;;;;6.95;5.03;;;6.10;99.90;;;;;;5061794;28;20097;-79
2021/11/04 03:22:35;;;;;;;8.77;4.75;;;6.00;99.90;;;;;;5064188;28;20494;-79
2021/11/04 03:25:01;;;;;;;4.32;3.90;;;6.00;99.90;;;;;;5103826;28;20037;-80
2021/11/04 03:27:28;;;;;;;10.50;5.28;;;6.10;99.90;;;;;;5053518;28;20068;-80
2021/11/04 03:29:55;;;;;;;8.68;5.30;;;6.10;99.90;;;;;;5065768;28;20091;-80
2021/11/04 03:32:22;;;;;;;6.32;4.93;;;6.00;99.90;;;;;;5098012;28;20410;-79
2021/11/04 03:34:50;;;;;;;6.38;5.25;;;5.90;99.90;;;;;;5066392;28;20044;-80
2021/11/04 03:37:18;;;;;;;6.10;5.22;;;6.00;99.90;;;;;;5075931;28;20049;-80
2021/11/04 03:39:45;;;;;;;7.22;5.40;;;6.00;99.90;;;;;;5099067;28;20380;-79
2021/11/04 03:42:12;;;;;;;6.13;3.67;;;6.00;99.90;;;;;;5102000;28;20531;-79
2021/11/04 03:44:40;;;;;;;9.52;6.93;;;6.00;99.90;;;;;;5081141;28;20178;-79
2021/11/04 03:47:07;;;;;;;9.25;4.38;;;6.00;99.90;;;;;;5098124;28;20040;-80
2021/11/04 03:49:33;;;;;;;5.75;4.47;;;6.00;99.90;;;;;;5093055;28;20064;-79
2021/11/04 03:52:00;;;;;;;6.75;4.78;;;6.00;99.90;;;;;;5102020;28;20092;-79
2021/11/04 03:54:27;;;;;;;6.78;3.78;;;6.00;99.90;;;;;;5105432;28;20044;-81
2021/11/04 03:56:54;;;;;;;5.53;4.95;;;6.00;99.90;;;;;;5100952;28;20507;-79
2021/11/04 03:59:21;;;;;;;11.82;6.15;;;6.00;99.90;;;;;;5092094;28;20051;-80
2021/11/04 04:01:47;;;;;;;12.15;5.68;;;6.00;99.90;;;;;;5070262;28;20040;-80
2021/11/04 04:04:13;;;;;;;8.65;5.93;;;6.50;99.90;;;;;;5108113;28;20083;-80
2021/11/04 04:06:39;;;;;;;7.70;5.50;;;6.00;99.90;;;;;;5103475;28;20055;-79
2021/11/04 04:09:07;;;;;;;10.57;6.57;;;6.00;99.90;;;;;;5091589;28;20542;-80
2021/11/04 04:11:33;;;;;;;5.45;5.00;;;6.00;99.90;;;;;;5103116;28;20055;-80
2021/11/04 04:13:59;;;;;;;8.75;6.63;;;6.10;99.90;;;;;;5109905;28;20144;-79
2021/11/04 04:16:25;;;;;;;11.38;5.63;;;6.00;99.90;;;;;;5082100;28;20493;-80
2021/11/04 04:18:53;;;;;;;6.32;5.35;;;6.00;99.90;;;;;;5066548;28;20063;-79
2021/11/04 04:21:19;;;;;;;10.52;7.03;;;6.00;99.90;;;;;;5102850;28;20428;-80
2021/11/04 04:23:45;;;;;;;9.70;5.47;;;5.90;99.90;;;;;;5098042;28;20102;-80
2021/11/04 04:26:12;;;;;;;5.90;4.82;;;6.00;99.90;;;;;;5102364;28;20044;-80
2021/11/04 04:28:37;;;;;;;17.40;5.30;;;6.00;99.90;;;;;;5069225;28;20529;-80
2021/11/04 04:31:03;;;;;;;7.20;5.45;;;6.00;99.90;;;;;;5100736;28;20085;-80
2021/11/04 04:33:29;;;;;;;9.98;6.70;;;6.00;99.90;;;;;;5063757;28;20040;-80
2021/11/04 04:35:55;;;;;;;15.50;7.10;;;6.00;99.90;;;;;;5067016;28;20049;-79
2021/11/04 04:38:22;;;;;;;8.05;4.28;;;6.10;99.90;;;;;;5093832;28;20087;-79
2021/11/04 04:40:48;;;;;;;;;;;6.00;99.90;;;;;;5106314;28;20053;-79
2021/11/04 04:43:14;;;;;;;6.20;5.07;;;5.90;99.90;;;;;;5077073;28;19920;-79
2021/11/04 04:45:40;;;;;;;11.68;5.72;;;6.00;99.90;;;;;;5058155;28;20047;-79
2021/11/04 04:48:06;;;;;;;17.92;6.28;;;6.00;99.90;;;;;;5102732;28;20078;-79
2021/11/04 04:50:32;;;;;;;15.95;7.38;;;6.00;99.90;;;;;;5071948;28;20036;-79
2021/11/04 04:52:57;;;;;;;8.15;5.07;;;6.00;99.90;;;;;;5056077;28;20043;-79
2021/11/04 04:55:24;;;;;;;5.78;3.78;;;6.10;99.90;;;;;;5110806;27;20044;-79
2021/11/04 04:57:50;;;;;;;12.35;6.00;;;6.00;99.90;;;;;;5068497;28;20421;-79
2021/11/04 05:00:16;;;;;;;13.07;5.72;;;6.00;99.90;;;;;;5105011;28;20048;-80
2021/11/04 05:02:42;;;;;;;;;;;6.00;99.90;;;;;;5114276;27;20040;-80
2021/11/04 05:05:09;;;;;;;9.05;4.97;;;5.90;99.90;;;;;;5106419;27;19966;-80
2021/11/04 05:07:35;;;;;;;7.07;3.85;;;5.90;99.90;;;;;;5098632;28;20085;-80
2021/11/04 05:10:02;;;;;;;10.68;4.13;;;5.90;99.90;;;;;;5080768;28;20042;-79
2021/11/04 05:12:28;;;;;;;6.78;5.18;;;5.90;99.90;;;;;;5062318;28;20041;-79
2021/11/04 05:14:54;;;;;;;9.70;5.40;;;6.00;99.90;;;;;;5078152;28;20036;-80
2021/11/04 05:17:20;;;;;;;10.32;4.53;;;5.90;99.90;;;;;;5106328;28;20500;-80
2021/11/04 05:19:45;;;;;;;8.00;3.70;;;5.90;99.90;;;;;;5107676;27;20120;-79
2021/11/04 05:22:11;;;;;;;9.35;4.28;;;5.90;99.90;;;;;;5106209;28;20063;-80
2021/11/04 05:24:37;;;;;;;8.63;5.55;;;5.90;99.90;;;;;;5072189;28;20042;-79
2021/11/04 05:27:04;;;;;;;13.35;5.57;;;5.90;99.90;;;;;;5105244;28;20029;-79
2021/11/04 05:29:31;;;;;;;9.35;5.45;;;5.90;99.90;;;;;;5102384;28;20414;-80
2021/11/04 05:31:57;;;;;;;;;;;5.90;99.90;;;;;;5114816;27;20076;-80
2021/11/04 05:34:23;;;;;;;7.63;5.07;;;5.90;99.90;;;;;;5069793;28;19963;-81
2021/11/04 05:36:49;;;;;;;4.22;3.08;;;5.80;99.90;;;;;;5106390;28;20390;-80
2021/11/04 05:39:15;;;;;;;4.78;3.45;;;5.80;99.90;;;;;;5104963;28;20052;-80
2021/11/04 05:41:41;;;;;;;9.30;5.05;;;5.80;99.90;;;;;;5071329;28;20045;-80
2021/11/04 05:44:06;;;;;;;6.45;3.78;;;5.80;99.90;;;;;;5103502;28;20037;-80
2021/11/04 05:46:32;;;;;;;6.72;3.33;;;5.80;99.90;;;;;;5099031;28;20045;-80
2021/11/04 05:48:58;;;;;;;5.00;3.97;;;5.80;99.90;;;;;;5070718;28;20110;-80
2021/11/04 05:51:23;;;;;;;8.50;4.18;;;5.80;99.90;;;;;;5072348;28;20056;-80
2021/11/04 05:53:49;;;;;;;3.45;3.03;;;5.70;99.90;;;;;;5072228;28;20044;-80
2021/11/04 05:56:15;;;;;;;6.32;3.30;;;5.70;99.90;;;;;;5065927;28;20109;-80
2021/11/04 05:58:40;;;;;;;7.43;3.53;;;5.80;99.90;;;;;;5076045;28;20035;-80
2021/11/04 06:01:06;;;;;;;5.35;4.20;;;5.80;99.90;;;;;;5068655;28;20037;-80
2021/11/04 06:03:32;;;;;;;7.18;4.68;;;5.70;99.90;;;;;;5087513;28;20092;-79
2021/11/04 06:05:58;;;;;;;5.43;4.32;;;5.80;99.90;;;;;;5055233;28;20044;-80
2021/11/04 06:08:23;;;;;;;11.82;4.88;;;5.70;99.90;;;;;;5105411;28;20028;-80
2021/11/04 06:10:49;;;;;;;4.28;3.88;;;5.70;99.90;;;;;;5106520;27;20048;-80
2021/11/04 06:13:15;;;;;;;6.50;3.08;;;5.70;99.90;;;;;;5071246;28;20044;-80
2021/11/04 06:15:40;;;;;;;4.40;3.72;;;5.60;99.90;;;;;;5072778;28;20052;-80
2021/11/04 06:18:06;;;;;;;4.07;3.10;;;5.70;99.90;;;;;;5071223;28;20072;-80
2021/11/04 06:20:32;;;;;;;3.42;2.85;;;5.70;99.90;;;;;;5070129;28;20489;-79
2021/11/04 06:22:57;;;;;;;5.38;3.75;;;5.70;99.90;;;;;;5104724;28;20080;-79
2021/11/04 06:25:23;;;;;;;6.78;3.63;;;5.80;99.90;;;;;;5096366;28;20040;-79
2021/11/04 06:27:49;;;;;;;4.65;4.13;;;5.70;99.90;;;;;;5084591;28;20451;-79
2021/11/04 06:30:15;;;;;;;5.50;3.97;;;5.90;99.90;;;;;;5068782;28;20037;-79
2021/11/04 06:32:41;;;;;;;6.00;4.47;;;5.60;99.90;;;;;;5104722;28;20068;-79
2021/11/04 06:35:08;;;;;;;6.68;2.85;;;5.90;99.90;;;;;;5051526;28;20079;-79
2021/11/04 06:37:35;;;;;;;4.18;3.78;;;5.70;99.90;;;;;;5087781;28;20114;-80
2021/11/04 06:40:03;;;;;;;5.22;3.78;;;5.60;99.90;;;;;;5072965;28;20052;-79
2021/11/04 06:42:28;;;;;;;5.57;2.95;;;5.60;99.90;;;;;;5048351;28;20481;-79
2021/11/04 06:44:54;;;;;;;8.85;4.13;;;5.50;99.90;;;;;;5070922;28;20273;-79
2021/11/04 06:47:29;;;;;;;4.60;3.80;;;5.40;99.90;;;;;;5055457;28;20136;-80
2021/11/04 06:49:57;;;;;;;3.40;3.10;;;5.40;99.90;;;;;;5071143;28;20119;-79
2021/11/04 06:52:43;;;;;;;5.15;3.65;;;5.40;99.90;;;;;;5104513;28;20102;-79
2021/11/04 06:55:15;;;;;;;4.93;2.87;;;5.20;99.90;;;;;;5075565;28;20440;-78
2021/11/04 06:57:42;;;;;;;4.95;2.63;;;5.20;99.90;;;;;;5080258;28;20290;-78
2021/11/04 07:00:11;;;;;;;4.72;3.60;;;5.10;99.90;;;;;;5098876;27;20097;-78
2021/11/04 07:02:40;;;;;;;5.72;3.85;;;5.10;99.90;;;;;;5103931;28;20051;-78
2021/11/04 07:05:08;;;;;;;6.05;2.47;;;5.10;99.90;;;;;;5071720;28;20040;-80
2021/11/04 07:07:46;;;;;;;8.55;3.53;;;5.20;99.90;;;;;;5105177;28;20058;-78
2021/11/04 07:10:13;;;;;;;5.22;3.60;;;5.20;99.90;;;;;;5105322;27;20068;-79
2021/11/04 07:12:45;;;;;;;4.60;3.08;;;5.20;99.90;;;;;;5069285;28;20044;-78
2021/11/04 07:15:11;;;;;;;3.47;2.78;;;5.20;99.90;;;;;;5105115;27;20055;-79
2021/11/04 07:17:39;;;;;;;;;;;5.20;99.90;;;;;;5111763;28;20441;-79
2021/11/04 07:20:12;;;;;;;6.53;3.42;;;5.20;99.90;;;;;;5069669;28;19970;-79
2021/11/04 07:22:45;;;;;;;3.35;2.63;;;5.20;99.90;;;;;;5104096;28;20128;-80
2021/11/04 07:25:14;;;;;;;11.35;4.10;;;5.20;99.90;;;;;;5064662;28;20411;-79
2021/11/04 07:27:52;;;;;;;8.20;3.92;;;5.20;99.90;;;;;;5104736;28;20036;-79
2021/11/04 07:30:19;;;;;;;3.63;3.10;;;5.30;99.90;;;;;;5083661;28;20045;-79
2021/11/04 07:32:51;;;;;;;2.72;2.28;;;5.40;99.90;;;;;;5053599;28;20056;-78
2021/11/04 07:35:21;;;;;;;2.70;2.38;;;5.20;99.90;;;;;;5068785;28;20055;-79
2021/11/04 07:37:47;;;;;;;4.82;2.90;;;5.20;99.90;;;;;;5102819;28;20040;-77
2021/11/04 07:40:15;;;;;;;2.70;2.42;;;5.10;99.90;;;;;;5073581;28;20386;-76
2021/11/04 07:42:42;;;;;;;6.45;3.47;;;5.20;99.90;;;;;;5095949;28;20048;-79
2021/11/04 07:45:09;;;;;;;6.63;3.88;;;5.10;99.90;;;;;;5070323;28;20063;-78
2021/11/04 07:47:39;;;;;;;6.85;3.15;;;5.20;99.90;;;;;;5069384;28;20439;-78
2021/11/04 07:50:07;;;;;;;4.22;2.40;;;5.20;99.90;;;;;;5069109;28;20037;-78
2021/11/04 07:52:33;;;;;;;4.25;2.90;;;5.10;99.90;;;;;;5053717;28;20095;-76
2021/11/04 07:55:00;;;;;;;;;;;5.00;99.90;;;;;;5105478;28;20037;-77
2021/11/04 07:57:27;;;;;;;1.52;1.42;;;5.00;99.90;;;;;;5058619;28;19920;-77
2021/11/04 07:59:52;;;;;;;8.77;3.13;;;5.00;99.90;;;;;;5092109;28;20045;-77
2021/11/04 08:02:18;;;;;;;2.53;2.33;;;5.10;99.90;;;;;;5087971;28;20071;-79
2021/11/04 08:04:44;;;;;;;5.10;2.90;;;5.10;99.90;;;;;;5081938;28;20032;-79
2021/11/04 08:07:10;;;;;;;2.58;2.38;;;5.10;99.90;;;;;;5065669;28;20080;-79
2021/11/04 08:09:36;;;;;;;2.80;1.90;;;5.10;99.90;;;;;;5065942;28;20033;-77
2021/11/04 08:12:02;;;;;;;7.07;3.38;;;5.20;99.90;;;;;;5093270;28;20477;-77
2021/11/04 08:14:27;;;;;;;5.93;2.67;;;5.20;99.90;;;;;;5102480;28;20048;-76
2021/11/04 08:16:53;;;;;;;2.67;2.42;;;5.30;99.90;;;;;;5076586;28;20102;-79
2021/11/04 08:19:20;;;;;;;3.95;3.50;;;5.30;99.90;;;;;;5100903;28;20149;-78
2021/11/04 08:21:45;;;;;;;3.47;2.67;;;5.30;99.90;;;;;;5072928;28;20040;-77
2021/11/04 08:24:11;;;;;;;6.30;2.72;;;5.30;99.90;;;;;;5101530;28;20051;-79
2021/11/04 08:26:37;;;;;;;3.33;1.73;;;5.40;99.90;;;;;;5042727;28;20044;-79
2021/11/04 08:29:03;;;;;;;3.38;3.00;;;5.40;99.90;;;;;;5105002;28;20090;-76
2021/11/04 08:31:30;;;;;;;4.25;3.00;;;5.40;99.90;;;;;;5105952;27;20036;-78
2021/11/04 08:33:56;;;;;;;3.40;2.03;;;5.40;99.90;;;;;;5106788;28;20040;-77
2021/11/04 08:36:22;;;;;;;3.65;3.10;;;5.50;99.90;;;;;;5106717;28;20056;-79
2021/11/04 08:38:48;;;;;;;5.45;3.65;;;5.60;99.90;;;;;;5090544;28;20041;-76
2021/11/04 08:41:14;;;;;;;3.42;2.33;;;5.70;99.90;;;;;;5070550;28;20636;-78
2021/11/04 08:43:40;;;;;;;3.05;2.78;;;5.70;99.90;;;;;;5073125;28;20051;-76
2021/11/04 08:46:07;;;;;;;4.13;2.10;;;5.70;99.90;;;;;;5072471;28;20478;-76
2021/11/04 08:48:34;;;;;;;15.48;3.60;;;5.80;99.90;;;;;;5073075;28;20094;-76
2021/11/04 08:51:00;;;;;;;2.47;2.28;;;5.80;99.90;;;;;;5075176;28;20089;-77
2021/11/04 08:53:26;;;;;;;4.85;2.97;;;5.90;99.90;;;;;;5040502;28;20099;-76
2021/11/04 08:55:52;;;;;;;2.72;2.53;;;6.00;99.90;;;;;;5079148;28;20029;-75
2021/11/04 08:58:17;;;;;;;3.50;2.72;;;6.10;99.90;;;;;;5098451;28;20058;-77
2021/11/04 09:00:43;;;;;;;2.38;1.95;;;6.00;99.90;;;;;;5072336;28;20048;-75
2021/11/04 09:03:09;;;;;;;3.65;2.78;;;6.00;99.90;;;;;;5072294;28;20049;-76
2021/11/04 09:05:37;;;;;;;2.92;1.92;;;6.10;99.90;;;;;;5106616;27;20039;-75
2021/11/04 09:08:05;;;;;;;6.85;3.47;;;6.10;99.90;;;;;;5102538;28;20044;-75
2021/11/04 09:10:31;;;;;;;1.98;1.77;;;6.20;99.90;;;;;;5102511;27;20040;-76
2021/11/04 09:12:57;;;;;;;4.90;2.53;;;6.20;99.90;;;;;;5106916;28;20101;-76
2021/11/04 09:15:22;;;;;;;3.15;2.45;;;6.30;99.90;;;;;;5074635;28;20116;-77
2021/11/04 09:17:48;;;;;;;6.90;2.60;;;6.40;99.90;;;;;;5090102;28;20094;-77
2021/11/04 09:20:16;;;;;;;3.33;3.03;;;6.60;99.90;;;;;;5071629;28;20083;-76
2021/11/04 09:22:46;;;;;;;3.85;2.75;;;6.70;99.90;;;;;;5101387;27;20033;-77
2021/11/04 09:25:12;;;;;;;3.80;2.17;;;6.90;99.90;;;;;;5072494;28;20094;-77
2021/11/04 09:27:38;;;;;;;3.97;1.83;;;6.90;99.90;;;;;;5106583;28;20032;-77
2021/11/04 09:30:05;;;;;;;;;;;7.00;99.90;;;;;;5106650;28;20125;-77
2021/11/04 09:32:31;;;;;;;4.13;2.72;;;7.10;99.90;;;;;;5073042;28;19916;-78
2021/11/04 09:34:59;;;;;;;5.75;3.33;;;7.10;99.90;;;;;;5105655;27;20085;-77
2021/11/04 09:37:25;;;;;;;6.35;2.80;;;7.20;99.90;;;;;;5105979;28;20041;-77
2021/11/04 09:39:51;;;;;;;10.23;4.40;;;7.20;99.90;;;;;;5106394;28;20052;-76
2021/11/04 09:42:24;;;;;;;6.13;3.65;;;7.30;99.90;;;;;;5099816;28;20055;-76
2021/11/04 09:44:52;;;;;;;5.05;3.50;;;7.20;99.90;;;;;;5071587;28;20041;-77
2021/11/04 09:47:20;;;;;;;6.38;4.43;;;7.20;99.90;;;;;;5110173;27;20142;-78
2021/11/04 09:49:46;;;;;;;8.75;3.22;;;7.10;99.90;;;;;;5069809;28;20040;-77
2021/11/04 09:52:12;;;;;;;7.07;3.42;;;7.00;99.90;;;;;;5071709;28;20049;-78
2021/11/04 09:54:38;;;;;;;7.72;3.38;;;7.10;99.90;;;;;;5106520;28;20488;-78
2021/11/04 09:57:08;;;;;;;7.57;3.75;;;7.20;99.90;;;;;;5073022;28;20044;-77
2021/11/04 09:59:35;;;;;;;4.20;2.97;;;7.40;99.90;;;;;;5107080;27;20047;-77
2021/11/04 10:02:00;;;;;;;;;;;7.50;99.90;;;;;;5105825;28;20048;-77
2021/11/04 10:04:38;;;;;;;4.75;2.88;;;7.60;99.90;;;;;;5073531;28;19926;-77
2021/11/04 10:07:05;;;;;;;4.68;3.13;;;7.70;99.90;;;;;;5105384;28;20426;-77
2021/11/04 10:09:31;;;;;;;5.53;3.45;;;7.90;99.90;;;;;;5092275;28;20384;-77
2021/11/04 10:11:57;;;;;;;3.92;2.95;;;7.90;99.90;;;;;;5065694;28;20123;-76
2021/11/04 10:14:23;;;;;;;8.55;4.20;;;7.90;99.90;;;;;;5071031;28;20079;-77
2021/11/04 10:16:48;;;;;;;15.85;3.25;;;7.90;99.90;;;;;;5105424;28;20444;-78
2021/11/04 10:19:16;;;;;;;15.43;4.65;;;7.80;99.90;;;;;;5073636;28;20098;-77
2021/11/04 10:21:48;;;;;;;9.48;4.43;;;7.60;99.90;;;;;;5084710;28;20131;-77
2021/11/04 10:24:25;;;;;;;6.70;4.40;;;7.50;99.90;;;;;;5073324;28;20047;-77
2021/11/04 10:26:55;;;;;;;6.85;3.75;;;7.40;99.90;;;;;;5070961;28;20032;-77
2021/11/04 10:29:25;;;;;;;5.25;3.20;;;7.50;99.90;;;;;;5072972;28;20101;-77
2021/11/04 10:31:58;;;;;;;5.25;4.07;;;7.50;99.90;;;;;;5071981;28;20052;-78
2021/11/04 10:34:25;;;;;;;8.57;3.50;;;7.60;99.90;;;;;;5105531;28;20075;-77
2021/11/04 10:36:51;;;;;;;6.93;4.22;;;7.60;99.90;;;;;;5106054;28;20048;-78
2021/11/04 10:39:17;;;;;;;7.00;5.03;;;7.70;99.90;;;;;;5101276;28;20131;-76
2021/11/04 10:41:44;;;;;;;3.97;3.42;;;7.70;99.90;;;;;;5105344;28;20135;-76
2021/11/04 10:44:17;;;;;;;10.55;5.80;;;7.80;99.90;;;;;;5093169;28;20044;-78
2021/11/04 10:46:48;;;;;;;8.65;4.63;;;7.80;99.90;;;;;;5088182;28;20119;-77
2021/11/04 10:49:15;;;;;;;7.25;3.67;;;7.90;99.90;;;;;;5108076;27;20101;-78
2021/11/04 10:51:42;;;;;;;10.00;5.05;;;7.90;99.90;;;;;;5103700;28;20055;-78
2021/11/04 10:54:14;;;;;;;7.38;4.20;;;7.90;99.90;;;;;;5070927;28;20428;-78
2021/11/04 10:56:42;;;;;;;7.60;4.45;;;8.00;99.90;;;;;;5073996;28;20104;-77
2021/11/04 10:59:16;;;;;;;13.27;5.57;;;8.20;99.90;;;;;;5081190;28;20042;-77
2021/11/04 11:01:42;;;;;;;8.60;4.53;;;;;;;;;;5109446;27;20147;-77
2021/11/04 11:04:14;;;;;;;9.43;3.83;;;8.40;99.90;;;;;;5076967;28;20073;-77
2021/11/04 11:06:55;;;;;;;5.95;2.55;;;8.50;99.90;;;;;;5061351;28;20177;-76
2021/11/04 11:09:27;;;;;;;7.57;4.10;;;8.50;99.90;;;;;;5099025;28;20110;-77
2021/11/04 11:12:04;;;;;;;7.15;3.83;;;8.50;99.90;;;;;;5070807;28;20044;-78
2021/11/04 11:14:31;;;;;;;7.65;3.35;;;8.50;99.90;;;;;;5104106;28;20090;-76
2021/11/04 11:17:00;;;;;;;2.67;1.75;;;8.50;99.90;;;;;;5104446;28;20504;-78
2021/11/04 11:19:38;;;;;;;8.52;3.60;;;8.70;99.90;;;;;;5112970;27;20044;-76
2021/11/04 11:22:06;;;;;;;3.78;2.03;;;8.80;99.90;;;;;;5064023;28;20105;-76
2021/11/04 11:24:35;;;;;;;2.47;2.08;;;9.00;99.90;;;;;;5087063;28;20093;-77
2021/11/04 11:27:04;;;;;;;3.28;2.63;;;9.10;99.90;;;;;;5057479;28;20046;-76
2021/11/04 11:29:40;;;;;;;6.03;1.98;;;9.10;99.90;;;;;;5103689;28;20481;-77
2021/11/04 11:32:17;;;;;;;3.78;2.42;;;9.20;99.90;;;;;;5067801;28;20040;-77
2021/11/04 11:34:45;;;;;;;4.90;2.53;;;9.20;99.90;;;;;;5078595;28;20048;-76
2021/11/04 11:37:17;;;;;;;4.00;2.00;;;9.30;99.90;;;;;;5082235;28;20363;-77
2021/11/04 11:39:54;;;;;;;3.38;2.38;;;9.30;99.90;;;;;;5058941;28;20080;-77
2021/11/04 11:42:22;;;;;;;4.72;2.50;;;9.40;99.90;;;;;;5103072;28;20591;-77
2021/11/04 11:44:56;;;;;;;7.05;2.20;;;9.40;99.90;;;;;;5101533;28;20090;-77
2021/11/04 11:47:37;;;;;;;2.30;1.92;;;9.40;99.90;;;;;;5060276;28;20037;-77
2021/11/04 11:50:32;;;;;;;4.38;3.92;;;9.50;99.90;;;;;;5098292;28;20048;-77
2021/11/04 11:53:04;;;;;;;6.88;3.15;;;9.50;99.90;;;;;;5070738;28;20032;-77
2021/11/04 11:55:42;;;;;;;5.80;2.50;;;9.50;99.90;;;;;;5057230;28;20304;-77
2021/11/04 11:58:16;;;;;;;3.70;2.40;;;9.50;99.90;;;;;;5072924;28;20043;-77
2021/11/04 12:00:54;;;;;;;3.67;2.95;;;9.50;99.90;;;;;;5069557;28;20075;-77
2021/11/04 12:03:58;;;;;;;3.03;2.40;;;9.60;99.90;;;;;;5065843;28;20148;-77
2021/11/04 12:06:26;;;;;;;3.28;1.95;;;9.60;99.90;;;;;;5061148;28;20039;-78
2021/11/04 12:08:57;;;;;;;3.92;2.95;;;9.60;99.90;;;;;;5097813;28;20032;-78
2021/11/04 12:11:35;;;;;;;4.70;2.72;;;9.70;99.90;;;;;;5088735;28;20067;-76
2021/11/04 12:14:19;;;;;;;2.63;1.88;;;9.70;99.90;;;;;;5106586;27;20056;-77
2021/11/04 12:17:03;;;;;;;3.40;2.63;;;9.80;99.90;;;;;;5099196;28;20048;-76
2021/11/04 12:19:40;;;;;;;4.18;2.13;;;9.80;99.90;;;;;;5062784;28;20505;-78
2021/11/04 12:22:10;;;;;;;4.07;3.22;;;9.90;99.90;;;;;;5070688;28;20101;-77
2021/11/04 12:24:47;;;;;;;5.97;2.35;;;10.00;99.90;;;;;;5069171;28;20046;-77
2021/11/04 12:27:13;;;;;;;3.40;2.85;;;10.00;99.90;;;;;;5102964;28;20385;-78
2021/11/04 12:29:39;;;;;;;6.90;3.38;;;10.00;99.90;;;;;;5069569;28;20048;-78
2021/11/04 12:32:13;;;;;;;7.80;2.83;;;10.10;99.90;;;;;;5089502;28;20041;-76
2021/11/04 12:34:39;;;;;;;5.60;3.83;;;10.10;99.90;;;;;;5105174;28;20515;-77
2021/11/04 12:37:14;;;;;;;3.75;2.60;;;10.10;99.90;;;;;;5072456;28;20121;-77
2021/11/04 12:39:46;;;;;;;7.00;2.25;;;10.10;99.90;;;;;;5071141;28;20275;-77
2021/11/04 12:42:17;;;;;;;3.97;2.38;;;10.30;99.90;;;;;;5105504;28;20049;-77
2021/11/04 12:44:44;;;;;;;6.22;2.47;;;10.10;99.90;;;;;;5104687;28;20033;-77
2021/11/04 12:47:15;;;;;;;6.97;2.20;;;10.20;99.90;;;;;;5068150;28;20173;-77
2021/11/04 12:49:41;;;;;;;2.53;1.77;;;10.20;99.90;;;;;;5072009;28;20556;-78
2021/11/04 12:52:09;;;;;;;6.38;2.70;;;10.20;99.90;;;;;;5055351;28;20078;-78
2021/11/04 12:54:44;;;;;;;3.80;1.35;;;10.20;99.90;;;;;;5110568;27;20123;-77
2021/11/04 12:57:12;;;;;;;1.58;1.40;;;10.30;99.90;;;;;;5076207;28;20405;-77
2021/11/04 12:59:47;;;;;;;2.75;1.80;;;10.40;99.90;;;;;;5069610;28;20044;-76
2021/11/04 13:02:23;;;;;;;2.03;1.35;;;10.50;99.90;;;;;;5057308;28;20036;-76
2021/11/04 13:04:51;;;;;;;2.57;1.97;;;10.70;99.90;;;;;;5072247;28;20045;-75